EDT,Max TemperatureF,Mean TemperatureF,Min TemperatureF,Max Dew PointF,MeanDew PointF,Min DewpointF,Max Humidity, Mean Humidity, Min Humidity, Max Sea Level PressureIn, Mean Sea Level PressureIn, Min Sea Level PressureIn, Max VisibilityMiles, Mean VisibilityMiles, Min VisibilityMiles, Max Wind SpeedMPH, Mean Wind SpeedMPH, Max Gust SpeedMPH,PrecipitationIn, CloudCover, Events, WindDirDegrees
2013-9-1,85,76,67,72,69,66,100,81,61,29.88,29.81,29.74,10,9,2,15,4,21,0.04,3,Rain-Thunderstorm,227
2013-9-2,86,76,65,70,66,61,100,74,47,29.91,29.86,29.81,10,8,3,12,3,18,0.00,1,,303
2013-9-3,77,67,56,62,55,51,93,68,43,30.08,30.02,29.91,10,10,2,15,5,18,0.00,0,,13
2013-9-4,81,66,51,63,56,50,100,71,42,30.17,30.13,30.08,10,9,2,8,1,10,0.00,0,,325
2013-9-5,85,71,57,66,60,55,100,72,43,30.21,30.17,30.14,10,9,4,7,1,12,0.00,0,,321
2013-9-6,85,74,62,66,60,53,93,70,47,30.22,30.16,30.09,10,10,5,9,3,12,0.00,0,,105
2013-9-7,86,73,59,68,64,57,97,73,48,30.09,30.03,29.97,10,10,6,13,3,16,0.01,1,Rain,231
2013-9-8,86,76,65,70,67,64,100,79,58,30.00,29.97,29.94,10,6,2,8,1,10,0.01,1,,225
2013-9-9,92,78,64,72,67,63,100,74,47,30.01,29.99,29.94,10,5,0,15,6,20,0.00,2,Fog,187
2013-9-10,94,83,71,73,71,67,93,67,41,30.13,30.08,30.00,10,9,6,21,4,26,0.05,1,Thunderstorm,210
2013-9-11,93,82,70,71,69,62,93,66,38,30.15,30.09,30.03,10,9,5,12,5,17,0.00,0,,235
2013-9-12,80,72,63,72,68,52,93,73,53,30.07,30.00,29.91,10,7,1,12,6,18,0.32,4,Rain,287
2013-9-13,70,60,49,54,49,43,93,68,42,30.12,30.07,29.99,10,10,10,18,8,25,0.00,1,,3
2013-9-14,70,56,42,50,45,42,100,70,39,30.20,30.14,30.10,10,10,10,10,3,14,0.00,0,,97
2013-9-15,78,61,43,59,48,42,100,68,36,30.14,30.09,30.04,10,10,10,13,3,17,0.00,2,,204
2013-9-16,69,63,56,57,55,51,84,74,63,30.28,30.20,30.06,10,10,10,13,7,17,0.00,7,,46
2013-9-17,75,63,51,56,52,49,93,70,46,30.30,30.24,30.15,10,10,7,14,4,17,0.00,0,,104
2013-9-18,80,67,54,66,61,53,100,81,62,30.15,30.10,30.05,10,9,5,10,3,15,0.01,4,Rain,192
2013-9-19,81,73,65,71,67,64,100,85,69,30.12,30.07,29.95,10,7,1,14,6,18,0.66,5,Rain-Thunderstorm,156
2013-9-20,79,72,65,70,68,65,97,83,69,29.97,29.88,29.82,10,8,4,13,6,20,0.27,6,Rain,234
2013-9-21,72,61,50,64,54,45,96,68,40,29.91,29.84,29.79,10,10,6,15,4,20,0.02,4,Rain,336
2013-9-22,70,57,44,51,47,43,96,72,47,30.02,29.98,29.91,10,10,6,12,3,15,0.00,1,,37
2013-9-23,71,57,42,50,46,41,96,70,44,30.10,30.05,30.02,10,10,10,12,4,18,0.00,0,,109
2013-9-24,76,62,47,60,53,45,93,74,54,30.05,29.97,29.89,10,10,10,10,5,13,0.00,0,,113
2013-9-25,79,68,57,61,58,53,97,75,52,29.92,29.88,29.86,10,10,6,10,3,14,0.00,2,,99
2013-9-26,78,63,48,56,50,46,100,68,35,30.07,30.01,29.92,10,8,2,9,2,13,0.00,0,,56
2013-9-27,79,64,48,57,50,46,100,70,39,30.17,30.12,30.07,10,5,0,12,1,15,0.01,0,Fog,110
2013-9-28,83,66,48,59,51,46,100,69,37,30.16,30.11,30.03,10,4,0,14,4,21,0.00,0,Fog,183
2013-9-29,67,65,62,63,60,55,100,84,68,30.05,30.02,29.99,10,4,2,12,6,18,0.46,8,Rain,213
2013-9-30,69,63,57,63,61,55,100,91,81,30.03,30.00,29.96,10,3,0,8,3,10,0.01,6,Fog-Rain,199